createdAt,value
2018-03-21T00:00:02.726Z,12.60
2018-03-21T00:02:30.178Z,14.18
2018-03-21T00:04:57.631Z,12.43
2018-03-21T00:07:25.122Z,14.13
2018-03-21T00:09:52.672Z,13.88
2018-03-21T00:12:20.137Z,16.30
2018-03-21T00:14:47.567Z,18.52
2018-03-21T00:17:15.007Z,16.05
2018-03-21T00:19:42.446Z,17.20
2018-03-21T00:22:10.654Z,18.00
2018-03-21T00:24:38.099Z,17.45
2018-03-21T00:27:05.543Z,19.85
2018-03-21T00:29:32.974Z,16.33
2018-03-21T00:32:01.226Z,15.77
2018-03-21T00:34:28.762Z,13.70
2018-03-21T00:36:56.217Z,15.32
2018-03-21T00:39:23.671Z,15.40
2018-03-21T00:41:51.123Z,14.73
2018-03-21T00:44:18.592Z,15.02
2018-03-21T00:46:46.046Z,13.80
2018-03-21T00:49:13.506Z,14.60
2018-03-21T00:51:41.066Z,12.95
2018-03-21T00:54:08.498Z,12.60
2018-03-21T00:56:35.931Z,11.80
2018-03-21T00:59:03.357Z,11.60
2018-03-21T01:01:30.810Z,11.73
2018-03-21T01:03:58.353Z,11.40
2018-03-21T01:06:25.815Z,10.55
2018-03-21T01:08:53.246Z,10.32
2018-03-21T01:11:20.682Z,11.00
2018-03-21T01:13:48.113Z,10.43
2018-03-21T01:16:16.332Z,11.48
2018-03-21T01:18:43.793Z,11.60
2018-03-21T01:21:11.235Z,10.52
2018-03-21T01:23:38.666Z,9.90
2018-03-21T01:26:06.878Z,10.20
2018-03-21T01:28:34.322Z,10.43
2018-03-21T01:31:01.803Z,10.40
2018-03-21T01:33:29.263Z,10.57
2018-03-21T01:35:56.687Z,10.43
2018-03-21T01:38:24.133Z,8.70
2018-03-21T01:40:51.666Z,7.90
2018-03-21T01:43:19.079Z,7.78
2018-03-21T01:45:46.509Z,7.80
2018-03-21T01:48:13.995Z,7.03
2018-03-21T01:50:41.453Z,6.75
2018-03-21T01:53:10.796Z,6.68
2018-03-21T01:55:39.000Z,7.30
2018-03-21T01:58:11.507Z,6.90
2018-03-21T02:00:38.927Z,8.10
2018-03-21T02:03:06.362Z,7.37
2018-03-21T02:05:34.596Z,7.07
2018-03-21T02:08:02.026Z,5.67
2018-03-21T02:10:29.455Z,5.80
2018-03-21T02:12:56.970Z,6.80
2018-03-21T02:15:24.404Z,5.80
2018-03-21T02:17:51.847Z,6.35
2018-03-21T02:20:19.270Z,6.18
2018-03-21T02:22:47.517Z,5.75
2018-03-21T02:25:14.950Z,5.75
2018-03-21T02:27:42.370Z,6.50
2018-03-21T02:30:09.804Z,6.20
2018-03-21T02:32:37.353Z,6.20
2018-03-21T02:35:04.787Z,6.70
2018-03-21T02:37:32.226Z,6.60
2018-03-21T02:39:59.650Z,6.30
2018-03-21T02:42:27.851Z,6.07
2018-03-21T02:44:55.288Z,5.80
2018-03-21T02:47:22.719Z,6.25
2018-03-21T02:49:50.176Z,6.37
2018-03-21T02:52:20.157Z,6.32
2018-03-21T02:54:47.601Z,6.30
2018-03-21T02:57:15.027Z,6.40
2018-03-21T02:59:42.522Z,6.53
2018-03-21T03:02:09.954Z,7.35
2018-03-21T03:04:37.391Z,7.03
2018-03-21T03:07:05.618Z,6.77
2018-03-21T03:09:33.068Z,6.90
2018-03-21T03:12:00.487Z,6.90
2018-03-21T03:14:27.964Z,6.10
2018-03-21T03:16:55.448Z,6.72
2018-03-21T03:19:22.910Z,6.37
2018-03-21T03:21:50.338Z,6.20
2018-03-21T03:24:17.769Z,6.12
2018-03-21T03:26:45.209Z,6.68
2018-03-21T03:29:13.414Z,5.65
2018-03-21T03:31:40.998Z,5.75
2018-03-21T03:34:08.398Z,6.10
2018-03-21T03:36:36.614Z,5.90
2018-03-21T03:39:04.049Z,6.50
2018-03-21T03:41:31.486Z,5.80
2018-03-21T03:43:59.696Z,5.90
2018-03-21T03:46:27.171Z,6.50
2018-03-21T03:48:54.622Z,6.65
2018-03-21T03:51:22.062Z,6.70
2018-03-21T03:53:49.512Z,7.22
2018-03-21T03:56:16.957Z,6.35
2018-03-21T03:58:44.449Z,6.95
2018-03-21T04:01:11.911Z,7.30
2018-03-21T04:03:39.346Z,6.97
2018-03-21T04:06:06.825Z,7.17
2018-03-21T04:08:34.260Z,7.00
2018-03-21T04:11:01.722Z,7.05
2018-03-21T04:13:29.154Z,7.97
2018-03-21T04:15:56.589Z,7.90
2018-03-21T04:18:24.806Z,7.70
2018-03-21T04:20:52.280Z,7.75
2018-03-21T04:23:19.720Z,7.40
2018-03-21T04:25:47.146Z,7.20
2018-03-21T04:28:14.578Z,7.37
2018-03-21T04:30:42.791Z,7.60
2018-03-21T04:33:10.248Z,8.43
2018-03-21T04:35:37.674Z,8.03
2018-03-21T04:38:05.984Z,7.82
2018-03-21T04:40:33.470Z,8.50
2018-03-21T04:43:00.921Z,8.27
2018-03-21T04:45:28.390Z,9.00
2018-03-21T04:47:55.830Z,8.13
2018-03-21T04:50:23.272Z,8.63
2018-03-21T04:52:50.730Z,9.00
2018-03-21T04:55:18.201Z,8.10
2018-03-21T04:57:45.745Z,8.63
2018-03-21T05:00:13.205Z,8.68
2018-03-21T05:02:40.686Z,9.60
2018-03-21T05:05:08.122Z,9.10
2018-03-21T05:07:35.580Z,9.10
2018-03-21T05:10:03.008Z,9.70
2018-03-21T05:12:30.434Z,9.20
2018-03-21T05:14:57.881Z,9.60
2018-03-21T05:17:25.327Z,9.15
2018-03-21T05:19:52.774Z,8.95
2018-03-21T05:22:20.222Z,8.90
2018-03-21T05:24:47.672Z,9.10
2018-03-21T05:27:15.094Z,8.80
2018-03-21T05:29:43.297Z,8.35
2018-03-21T05:32:10.871Z,8.05
2018-03-21T05:34:38.330Z,9.27
2018-03-21T05:37:05.778Z,9.30
2018-03-21T05:39:33.262Z,9.18
2018-03-21T05:42:00.710Z,9.05
2018-03-21T05:44:28.548Z,9.10
2018-03-21T05:46:56.021Z,8.63
2018-03-21T05:49:23.460Z,9.23
2018-03-21T05:51:50.903Z,9.20
2018-03-21T05:54:19.248Z,9.30
2018-03-21T05:56:46.681Z,9.82
2018-03-21T05:59:14.138Z,9.00
2018-03-21T06:01:41.567Z,8.73
2018-03-21T06:04:09.038Z,9.30
2018-03-21T06:06:36.560Z,10.30
2018-03-21T06:09:04.070Z,9.48
2018-03-21T06:11:31.620Z,9.48
2018-03-21T06:13:59.060Z,9.98
2018-03-21T06:16:26.552Z,10.70
2018-03-21T06:18:54.025Z,10.63
2018-03-21T06:21:22.250Z,9.85
2018-03-21T06:23:49.717Z,9.50
2018-03-21T06:26:17.174Z,10.07
2018-03-21T06:28:44.639Z,9.95
2018-03-21T06:31:12.074Z,10.18
2018-03-21T06:33:39.534Z,10.07
2018-03-21T06:36:06.965Z,10.35
2018-03-21T06:38:34.398Z,9.55
2018-03-21T06:41:01.838Z,9.07
2018-03-21T06:43:29.328Z,9.90
2018-03-21T06:45:57.549Z,9.75
2018-03-21T06:48:25.130Z,9.48
2018-03-21T06:50:52.640Z,9.82
2018-03-21T06:53:20.129Z,9.70
2018-03-21T06:55:47.571Z,9.55
2018-03-21T06:58:15.014Z,9.48
2018-03-21T07:00:42.464Z,9.27
2018-03-21T07:03:09.906Z,10.33
2018-03-21T07:05:37.403Z,9.90
2018-03-21T07:08:04.874Z,9.00
2018-03-21T07:10:32.310Z,9.27
2018-03-21T07:12:59.850Z,8.80
2018-03-21T07:15:39.324Z,8.38
2018-03-21T07:18:06.751Z,8.35
2018-03-21T07:20:34.188Z,8.88
2018-03-21T07:23:01.684Z,8.93
2018-03-21T07:25:29.122Z,9.30
2018-03-21T07:27:56.554Z,8.43
2018-03-21T07:30:24.075Z,8.32
2018-03-21T07:32:51.690Z,8.32
2018-03-21T07:35:19.159Z,8.70
2018-03-21T07:37:46.607Z,8.75
2018-03-21T07:40:14.183Z,9.27
2018-03-21T07:42:41.638Z,8.52
2018-03-21T07:45:09.098Z,9.50
2018-03-21T07:47:36.540Z,8.70
2018-03-21T07:50:04.112Z,8.23
2018-03-21T07:52:31.754Z,8.70
2018-03-21T07:54:59.218Z,9.10
2018-03-21T07:57:26.767Z,8.03
2018-03-21T07:59:54.256Z,8.40
2018-03-21T08:02:21.726Z,8.40
2018-03-21T08:04:49.244Z,8.75
2018-03-21T08:07:16.687Z,8.00
2018-03-21T08:09:44.278Z,7.60
2018-03-21T08:12:11.716Z,7.85
2018-03-21T08:14:39.143Z,8.55
2018-03-21T08:17:06.621Z,8.38
2018-03-21T08:19:34.129Z,8.40
2018-03-21T08:22:01.532Z,7.90
2018-03-21T08:24:28.990Z,8.65
2018-03-21T08:26:56.426Z,8.20
2018-03-21T08:29:23.876Z,7.97
2018-03-21T08:31:51.310Z,8.07
2018-03-21T08:34:18.851Z,7.97
2018-03-21T08:36:46.383Z,8.50
2018-03-21T08:39:13.796Z,8.15
2018-03-21T08:41:41.223Z,8.10
2018-03-21T08:44:08.670Z,7.68
2018-03-21T08:46:36.128Z,7.32
2018-03-21T08:49:03.657Z,8.13
2018-03-21T08:51:31.126Z,7.03
2018-03-21T08:53:58.570Z,7.78
2018-03-21T08:56:26.095Z,6.72
2018-03-21T08:58:54.491Z,7.10
2018-03-21T09:01:21.950Z,6.70
2018-03-21T09:03:49.418Z,7.15
2018-03-21T09:06:16.907Z,7.15
2018-03-21T09:08:44.381Z,7.00
2018-03-21T09:11:11.922Z,8.30
2018-03-21T09:13:39.554Z,6.53
2018-03-21T09:16:07.019Z,7.30
2018-03-21T09:18:34.488Z,6.93
2018-03-21T09:21:02.024Z,7.05
2018-03-21T09:23:29.439Z,7.10
2018-03-21T09:25:57.653Z,7.40
2018-03-21T09:28:25.142Z,8.20
2018-03-21T09:30:52.599Z,7.05
2018-03-21T09:33:20.907Z,7.37
2018-03-21T09:35:49.121Z,7.65
2018-03-21T09:38:16.683Z,7.80
2018-03-21T09:40:44.138Z,7.20
2018-03-21T09:43:11.566Z,7.40
2018-03-21T09:45:39.875Z,6.75
2018-03-21T09:48:07.428Z,6.60
2018-03-21T09:50:34.920Z,6.80
2018-03-21T09:53:02.350Z,6.93
2018-03-21T09:55:29.857Z,6.33
2018-03-21T09:57:58.102Z,6.27
2018-03-21T10:00:25.559Z,6.30
2018-03-21T10:02:52.987Z,6.85
2018-03-21T10:05:20.549Z,7.37
2018-03-21T10:07:48.034Z,5.70
2018-03-21T10:10:15.502Z,6.10
2018-03-21T10:12:42.942Z,6.20
2018-03-21T10:15:10.396Z,4.47
2018-03-21T10:17:37.934Z,4.60
2018-03-21T10:20:05.422Z,4.65
2018-03-21T10:22:32.953Z,4.82
2018-03-21T10:25:00.540Z,5.00
2018-03-21T10:27:27.963Z,4.53
2018-03-21T10:29:55.427Z,4.60
2018-03-21T10:32:22.857Z,3.97
2018-03-21T10:34:50.362Z,4.30
2018-03-21T10:37:17.895Z,4.35
2018-03-21T10:39:45.552Z,4.28
2018-03-21T10:42:12.986Z,4.10
2018-03-21T10:44:40.425Z,4.05
2018-03-21T10:47:08.741Z,4.22
2018-03-21T10:49:36.244Z,4.60
2018-03-21T10:52:03.826Z,4.68
2018-03-21T10:54:32.150Z,4.95
2018-03-21T10:56:59.606Z,4.90
2018-03-21T10:59:27.073Z,5.20
2018-03-21T11:02:00.313Z,5.83
2018-03-21T11:04:27.739Z,6.10
2018-03-21T11:06:55.169Z,5.70
2018-03-21T11:09:22.595Z,5.90
2018-03-21T11:11:50.315Z,5.72
2018-03-21T11:14:17.722Z,5.65
2018-03-21T11:16:45.198Z,5.82
2018-03-21T11:19:12.633Z,6.12
2018-03-21T11:21:40.114Z,6.95
2018-03-21T11:24:07.651Z,6.85
2018-03-21T11:26:35.133Z,6.72
2018-03-21T11:29:02.563Z,6.70
2018-03-21T11:31:30.043Z,6.82
2018-03-21T11:33:57.578Z,6.87
2018-03-21T11:36:25.035Z,7.70
2018-03-21T11:38:52.466Z,7.10
2018-03-21T11:41:19.904Z,6.82
2018-03-21T11:43:48.151Z,6.53
2018-03-21T11:46:15.591Z,7.50
2018-03-21T11:48:43.030Z,8.10
2018-03-21T11:51:10.517Z,8.00
2018-03-21T11:53:37.946Z,7.60
2018-03-21T11:56:05.370Z,7.60
2018-03-21T11:58:33.680Z,7.82
2018-03-21T12:01:01.115Z,7.85
2018-03-21T12:03:28.696Z,8.70
2018-03-21T12:05:56.154Z,8.32
2018-03-21T12:08:23.600Z,7.70
2018-03-21T12:10:51.268Z,8.30
2018-03-21T12:13:18.750Z,8.52
2018-03-21T12:15:46.291Z,8.93
2018-03-21T12:18:13.739Z,8.55
2018-03-21T12:20:41.160Z,9.23
2018-03-21T12:23:09.369Z,9.35
2018-03-21T12:25:36.792Z,8.80
2018-03-21T12:28:04.988Z,8.10
2018-03-21T12:30:32.414Z,10.18
2018-03-21T12:33:00.743Z,9.18
2018-03-21T12:35:28.158Z,8.50
2018-03-21T12:37:56.362Z,8.50
2018-03-21T12:40:23.818Z,8.87
2018-03-21T12:42:51.275Z,9.50
2018-03-21T12:45:18.741Z,10.38
2018-03-21T12:47:46.707Z,9.88
2018-03-21T12:50:14.163Z,11.02
2018-03-21T12:52:41.611Z,10.80
2018-03-21T12:55:09.055Z,10.98
2018-03-21T12:57:36.631Z,9.90
2018-03-21T13:00:04.074Z,10.95
2018-03-21T13:02:31.514Z,10.93
2018-03-21T13:04:59.002Z,10.23
2018-03-21T13:07:26.559Z,9.40
2018-03-21T13:09:54.047Z,10.30
2018-03-21T13:12:21.577Z,10.17
2018-03-21T13:14:49.033Z,10.70
2018-03-21T13:17:16.479Z,9.60
2018-03-21T13:19:43.966Z,9.60
2018-03-21T13:22:11.366Z,9.45
2018-03-21T13:24:39.566Z,10.20
2018-03-21T13:27:07.034Z,10.60
2018-03-21T13:29:34.467Z,10.38
2018-03-21T13:32:01.947Z,9.45
2018-03-21T13:34:29.370Z,11.00
2018-03-21T13:36:57.571Z,11.38
2018-03-21T13:39:25.086Z,11.27
2018-03-21T13:41:52.486Z,10.05
2018-03-21T13:44:19.949Z,11.30
2018-03-21T13:46:47.369Z,11.23
2018-03-21T13:49:15.574Z,10.00
2018-03-21T13:51:43.032Z,10.70
2018-03-21T13:54:10.488Z,10.50
2018-03-21T13:56:37.913Z,8.80
2018-03-21T13:59:06.222Z,9.18
2018-03-21T14:01:33.678Z,7.75
2018-03-21T14:04:01.171Z,7.70
2018-03-21T14:06:28.651Z,10.63
2018-03-21T14:08:56.146Z,10.77
2018-03-21T14:11:23.604Z,11.70
2018-03-21T14:13:51.055Z,10.15
2018-03-21T14:16:18.803Z,11.00
2018-03-21T14:18:46.286Z,11.25
2018-03-21T14:21:13.844Z,11.10
2018-03-21T14:23:41.505Z,11.15
2018-03-21T14:26:09.065Z,11.43
2018-03-21T14:28:36.512Z,11.85
2018-03-21T14:31:04.083Z,11.93
2018-03-21T14:33:31.638Z,11.65
2018-03-21T14:35:59.401Z,10.98
2018-03-21T14:38:26.962Z,12.27
2018-03-21T14:40:55.217Z,11.50
2018-03-21T14:43:22.649Z,12.02
2018-03-21T14:45:51.723Z,11.50
2018-03-21T14:48:20.087Z,10.70
2018-03-21T14:50:47.724Z,11.98
2018-03-21T14:53:15.281Z,12.60
2018-03-21T14:55:42.839Z,11.20
2018-03-21T14:58:11.215Z,12.10
2018-03-21T15:00:38.708Z,12.20
2018-03-21T15:03:06.166Z,11.70
2018-03-21T15:05:33.801Z,11.07
2018-03-21T15:08:01.249Z,12.37
2018-03-21T15:10:28.705Z,13.15
2018-03-21T15:12:56.161Z,12.48
2018-03-21T15:15:23.570Z,12.50
2018-03-21T15:17:51.824Z,12.18
2018-03-21T15:20:19.290Z,11.27
2018-03-21T15:22:46.734Z,10.90
2018-03-21T15:25:14.186Z,11.40
2018-03-21T15:27:41.630Z,10.80
2018-03-21T15:30:09.067Z,9.60
2018-03-21T15:32:36.498Z,8.77
2018-03-21T15:35:04.806Z,8.70
2018-03-21T15:37:32.246Z,8.38
2018-03-21T15:39:59.673Z,7.57
2018-03-21T15:45:01.721Z,7.65
2018-03-21T15:47:29.170Z,8.20
2018-03-21T15:49:56.591Z,8.70
2018-03-21T15:52:24.079Z,8.07
2018-03-21T15:54:51.513Z,7.72
2018-03-21T15:57:18.967Z,7.90
2018-03-21T15:59:46.407Z,8.00
2018-03-21T16:02:14.763Z,7.60
2018-03-21T16:04:42.994Z,8.32
2018-03-21T16:07:10.731Z,7.18
2018-03-21T16:09:38.205Z,7.25
2018-03-21T16:12:05.638Z,7.12
2018-03-21T16:14:33.117Z,7.57
2018-03-21T16:17:00.537Z,7.65
2018-03-21T16:19:28.746Z,7.85
2018-03-21T16:21:56.184Z,7.80
2018-03-21T16:24:23.623Z,8.88
2018-03-21T16:26:51.834Z,9.48
2018-03-21T16:29:19.308Z,8.93
2018-03-21T16:31:46.740Z,8.30
2018-03-21T16:34:14.205Z,8.70
2018-03-21T16:36:41.831Z,8.35
2018-03-21T16:39:09.437Z,8.93
2018-03-21T16:41:37.046Z,8.77
2018-03-21T16:44:05.293Z,8.20
2018-03-21T16:46:32.749Z,9.75
2018-03-21T16:49:00.195Z,10.27
2018-03-21T16:51:27.630Z,9.80
2018-03-21T16:53:55.096Z,9.93
2018-03-21T16:56:22.548Z,9.18
2018-03-21T16:58:50.039Z,9.90
2018-03-21T17:01:18.072Z,10.30
2018-03-21T17:03:45.634Z,9.40
2018-03-21T17:06:13.065Z,8.63
2018-03-21T17:08:40.527Z,8.83
2018-03-21T17:11:08.719Z,8.30
2018-03-21T17:13:36.167Z,7.60
2018-03-21T17:16:03.630Z,8.27
2018-03-21T17:18:31.189Z,7.15
2018-03-21T17:20:58.654Z,7.22
2018-03-21T17:23:26.150Z,7.30
2018-03-21T17:25:53.683Z,8.02
2018-03-21T17:28:22.510Z,7.87
2018-03-21T17:30:50.779Z,7.87
2018-03-21T17:33:18.203Z,7.50
2018-03-21T17:35:45.674Z,8.30
2018-03-21T17:38:13.122Z,7.93
2018-03-21T17:40:40.579Z,7.70
2018-03-21T17:43:08.014Z,7.32
2018-03-21T17:45:35.470Z,7.65
2018-03-21T17:48:02.923Z,6.97
2018-03-21T17:50:30.359Z,7.82
2018-03-21T17:52:57.935Z,7.10
2018-03-21T17:55:25.366Z,7.78
2018-03-21T17:57:52.954Z,7.28
2018-03-21T18:00:20.596Z,7.80
2018-03-21T18:02:48.071Z,8.30
2018-03-21T18:05:15.650Z,8.43
2018-03-21T18:07:43.190Z,8.27
2018-03-21T18:10:10.647Z,7.68
2018-03-21T18:12:38.071Z,8.60
2018-03-21T18:15:06.276Z,8.25
2018-03-21T18:17:33.710Z,8.40
2018-03-21T18:20:01.163Z,8.45
2018-03-21T18:22:29.355Z,8.40
2018-03-21T18:24:56.802Z,8.32
2018-03-21T18:27:24.261Z,7.90
2018-03-21T18:29:51.750Z,8.18
2018-03-21T18:32:19.290Z,8.10
2018-03-21T18:34:46.947Z,8.40
2018-03-21T18:37:14.374Z,8.48
2018-03-21T18:39:41.859Z,9.10
2018-03-21T18:42:09.288Z,9.45
2018-03-21T18:44:37.491Z,9.95
2018-03-21T18:47:04.948Z,13.70
2018-03-21T18:49:32.365Z,9.93
2018-03-21T18:52:00.678Z,9.80
2018-03-21T18:54:28.103Z,10.07
2018-03-21T18:56:56.394Z,9.00
2018-03-21T18:59:23.787Z,10.88
2018-03-21T19:01:51.242Z,10.68
2018-03-21T19:04:18.699Z,10.10
2018-03-21T19:06:46.241Z,11.38
2018-03-21T19:09:13.716Z,11.70
2018-03-21T19:11:41.256Z,11.60
2018-03-21T19:14:08.674Z,10.75
2018-03-21T19:16:36.922Z,10.50
2018-03-21T19:19:04.393Z,10.55
2018-03-21T19:21:31.852Z,10.05
2018-03-21T19:23:59.290Z,10.40
2018-03-21T19:26:26.762Z,11.30
2018-03-21T19:28:54.974Z,10.15
2018-03-21T19:31:22.441Z,10.20
2018-03-21T19:33:49.857Z,9.63
2018-03-21T19:36:18.056Z,10.05
2018-03-21T19:38:45.499Z,10.25
2018-03-21T19:41:13.826Z,10.50
2018-03-21T19:43:41.287Z,10.30
2018-03-21T19:46:08.735Z,9.55
2018-03-21T19:48:36.194Z,10.80
2018-03-21T19:51:03.662Z,10.68
2018-03-21T19:53:31.107Z,10.90
2018-03-21T19:55:58.564Z,11.00
2018-03-21T19:58:26.041Z,9.48
2018-03-21T20:00:53.459Z,11.20
2018-03-21T20:03:20.903Z,11.65
2018-03-21T20:05:48.364Z,11.38
2018-03-21T20:08:16.538Z,11.80
2018-03-21T20:10:44.038Z,11.80
2018-03-21T20:13:11.972Z,11.95
2018-03-21T20:15:39.506Z,13.50
2018-03-21T20:18:07.089Z,14.63
2018-03-21T20:20:34.532Z,14.77
2018-03-21T20:23:01.965Z,15.50
2018-03-21T20:25:30.174Z,15.07
2018-03-21T20:27:57.669Z,15.50
2018-03-21T20:30:25.225Z,15.77
2018-03-21T20:32:52.661Z,15.40
2018-03-21T20:35:20.140Z,15.30
2018-03-21T20:37:47.573Z,16.13
2018-03-21T20:40:15.056Z,15.43
2018-03-21T20:42:42.678Z,15.50
2018-03-21T20:45:10.116Z,14.00
2018-03-21T20:47:37.564Z,15.85
2018-03-21T20:50:05.099Z,15.00
2018-03-21T20:52:32.551Z,14.50
2018-03-21T20:54:59.991Z,16.20
2018-03-21T20:57:27.445Z,17.12
2018-03-21T20:59:54.976Z,16.08
2018-03-21T21:02:22.401Z,16.58
2018-03-21T21:04:50.614Z,15.90
2018-03-21T21:07:18.068Z,18.02
2018-03-21T21:09:45.556Z,17.98
2018-03-21T21:12:12.974Z,16.67
2018-03-21T21:14:40.468Z,15.95
2018-03-21T21:17:07.910Z,15.20
2018-03-21T21:19:35.378Z,16.37
2018-03-21T21:22:02.835Z,16.58
2018-03-21T21:24:30.382Z,15.80
2018-03-21T21:26:57.844Z,15.50
2018-03-21T21:29:25.373Z,16.27
2018-03-21T21:31:52.842Z,15.82
2018-03-21T21:34:20.391Z,15.88
2018-03-21T21:36:47.822Z,15.57
2018-03-21T21:39:15.269Z,15.70
2018-03-21T21:41:43.476Z,14.85
2018-03-21T21:44:10.935Z,14.68
2018-03-21T21:46:38.388Z,14.77
2018-03-21T21:49:05.832Z,13.45
2018-03-21T21:51:33.325Z,13.68
2018-03-21T21:54:00.815Z,13.55
2018-03-21T21:56:28.254Z,14.07
2018-03-21T21:58:55.707Z,13.00
2018-03-21T22:01:23.260Z,12.65
2018-03-21T22:03:50.802Z,13.70
2018-03-21T22:06:18.235Z,13.10
2018-03-21T22:08:45.799Z,12.73
2018-03-21T22:11:13.223Z,12.55
2018-03-21T22:13:41.478Z,12.18
2018-03-21T22:16:08.919Z,12.10
2018-03-21T22:18:36.369Z,11.77
2018-03-21T22:21:03.802Z,12.43
2018-03-21T22:23:31.358Z,10.90
2018-03-21T22:25:58.769Z,11.73
2018-03-21T22:28:26.990Z,11.30
2018-03-21T22:30:54.484Z,11.75
2018-03-21T22:33:22.039Z,11.85
2018-03-21T22:35:49.480Z,12.40
2018-03-21T22:38:17.022Z,11.75
2018-03-21T22:40:44.445Z,13.02
2018-03-21T22:43:12.682Z,12.25
2018-03-21T22:45:40.126Z,11.52
2018-03-21T22:48:07.661Z,12.70
2018-03-21T22:50:35.127Z,12.37
2018-03-21T22:53:02.574Z,14.10
2018-03-21T22:55:30.065Z,13.35
2018-03-21T22:57:57.518Z,12.37
2018-03-21T23:00:25.071Z,12.68
2018-03-21T23:02:52.509Z,13.10
2018-03-21T23:05:19.959Z,13.23
2018-03-21T23:07:47.402Z,13.68
2018-03-21T23:10:14.862Z,13.65
2018-03-21T23:12:42.294Z,13.73
2018-03-21T23:15:10.524Z,13.00
2018-03-21T23:17:37.981Z,14.53
2018-03-21T23:20:05.442Z,13.90
2018-03-21T23:22:32.892Z,13.38
2018-03-21T23:25:00.342Z,13.25
2018-03-21T23:27:27.889Z,13.93
2018-03-21T23:29:55.326Z,14.60
2018-03-21T23:32:22.768Z,14.30
2018-03-21T23:34:50.968Z,13.95
2018-03-21T23:37:18.415Z,13.10
2018-03-21T23:39:45.924Z,13.73
2018-03-21T23:42:13.482Z,12.60
2018-03-21T23:44:40.939Z,12.60
2018-03-21T23:47:08.488Z,13.40
2018-03-21T23:49:36.018Z,12.80
2018-03-21T23:52:03.461Z,13.13
2018-03-21T23:54:30.929Z,12.90
2018-03-21T23:56:58.386Z,12.88
2018-03-21T23:59:25.848Z,12.13
